sensor_id;sensor_type;location;lat;lon;timestamp;pressure;altitude;pressure_sealevel;temperature;humidity
37200;BME280;23096;50.892;16.746;2023-05-12T00:02:24;99434.70;;;11.83;51.03
37200;BME280;23096;50.892;16.746;2023-05-12T00:04:50;99434.79;;;11.86;51.17
37200;BME280;23096;50.892;16.746;2023-05-12T00:07:16;99431.30;;;11.87;51.14
37200;BME280;23096;50.892;16.746;2023-05-12T00:09:42;99431.02;;;11.85;51.19
37200;BME280;23096;50.892;16.746;2023-05-12T00:12:08;99430.94;;;11.83;51.23
37200;BME280;23096;50.892;16.746;2023-05-12T00:14:34;99433.59;;;11.80;51.34
37200;BME280;23096;50.892;16.746;2023-05-12T00:17:02;99433.46;;;11.79;51.34
37200;BME280;23096;50.892;16.746;2023-05-12T00:19:27;99430.20;;;11.79;51.38
37200;BME280;23096;50.892;16.746;2023-05-12T00:21:53;99429.02;;;11.78;51.44
37200;BME280;23096;50.892;16.746;2023-05-12T00:24:18;99431.33;;;11.76;51.46
37200;BME280;23096;50.892;16.746;2023-05-12T00:26:44;99428.64;;;11.74;51.51
37200;BME280;23096;50.892;16.746;2023-05-12T00:29:10;99423.89;;;11.77;51.64
37200;BME280;23096;50.892;16.746;2023-05-12T00:31:35;99427.11;;;11.79;51.56
37200;BME280;23096;50.892;16.746;2023-05-12T00:34:01;99424.42;;;11.77;51.66
37200;BME280;23096;50.892;16.746;2023-05-12T00:36:26;99424.11;;;11.76;51.68
37200;BME280;23096;50.892;16.746;2023-05-12T00:38:52;99423.84;;;11.74;51.68
37200;BME280;23096;50.892;16.746;2023-05-12T00:41:19;99422.20;;;11.71;51.67
37200;BME280;23096;50.892;16.746;2023-05-12T00:43:44;99423.30;;;11.69;51.68
37200;BME280;23096;50.892;16.746;2023-05-12T00:46:10;99421.71;;;11.65;51.66
37200;BME280;23096;50.892;16.746;2023-05-12T00:48:36;99423.54;;;11.62;51.72
37200;BME280;23096;50.892;16.746;2023-05-12T00:51:03;99424.20;;;11.58;51.79
37200;BME280;23096;50.892;16.746;2023-05-12T00:53:30;99425.20;;;11.54;51.75
37200;BME280;23096;50.892;16.746;2023-05-12T00:55:55;99425.29;;;11.45;51.79
37200;BME280;23096;50.892;16.746;2023-05-12T00:58:23;99425.59;;;11.41;51.84
37200;BME280;23096;50.892;16.746;2023-05-12T01:00:49;99426.97;;;11.36;51.88
37200;BME280;23096;50.892;16.746;2023-05-12T01:03:16;99433.24;;;11.33;51.94
37200;BME280;23096;50.892;16.746;2023-05-12T01:05:46;99436.45;;;11.29;52.01
37200;BME280;23096;50.892;16.746;2023-05-12T01:08:15;99433.48;;;11.25;52.01
37200;BME280;23096;50.892;16.746;2023-05-12T01:10:45;99433.84;;;11.20;52.07
37200;BME280;23096;50.892;16.746;2023-05-12T01:13:13;99433.23;;;11.17;52.18
37200;BME280;23096;50.892;16.746;2023-05-12T01:15:41;99431.13;;;11.13;52.24
37200;BME280;23096;50.892;16.746;2023-05-12T01:18:10;99434.45;;;11.11;52.32
37200;BME280;23096;50.892;16.746;2023-05-12T01:20:37;99431.45;;;11.08;52.40
37200;BME280;23096;50.892;16.746;2023-05-12T01:23:04;99429.12;;;11.06;52.37
37200;BME280;23096;50.892;16.746;2023-05-12T01:25:32;99428.32;;;11.04;52.44
37200;BME280;23096;50.892;16.746;2023-05-12T01:28:01;99430.90;;;11.04;52.55
37200;BME280;23096;50.892;16.746;2023-05-12T01:30:28;99429.10;;;11.01;52.52
37200;BME280;23096;50.892;16.746;2023-05-12T01:32:54;99426.27;;;10.98;52.57
37200;BME280;23096;50.892;16.746;2023-05-12T01:35:20;99429.95;;;10.95;52.63
37200;BME280;23096;50.892;16.746;2023-05-12T01:38:05;99431.27;;;10.92;52.69
37200;BME280;23096;50.892;16.746;2023-05-12T01:40:34;99430.50;;;10.88;52.79
37200;BME280;23096;50.892;16.746;2023-05-12T01:43:01;99433.06;;;10.83;52.77
37200;BME280;23096;50.892;16.746;2023-05-12T01:45:30;99436.84;;;10.77;52.76
37200;BME280;23096;50.892;16.746;2023-05-12T01:47:55;99435.41;;;10.73;52.86
37200;BME280;23096;50.892;16.746;2023-05-12T01:50:21;99436.86;;;10.71;52.94
37200;BME280;23096;50.892;16.746;2023-05-12T01:52:47;99439.33;;;10.69;53.02
37200;BME280;23096;50.892;16.746;2023-05-12T01:55:14;99438.23;;;10.65;53.02
37200;BME280;23096;50.892;16.746;2023-05-12T01:57:45;99436.75;;;10.57;53.08
37200;BME280;23096;50.892;16.746;2023-05-12T02:00:11;99435.41;;;10.50;53.14
37200;BME280;23096;50.892;16.746;2023-05-12T02:02:39;99436.38;;;10.46;53.24
37200;BME280;23096;50.892;16.746;2023-05-12T02:05:07;99440.34;;;10.39;53.30
37200;BME280;23096;50.892;16.746;2023-05-12T02:07:33;99442.22;;;10.33;53.49
37200;BME280;23096;50.892;16.746;2023-05-12T02:09:59;99440.54;;;10.32;53.58
37200;BME280;23096;50.892;16.746;2023-05-12T02:12:25;99440.63;;;10.28;53.66
37200;BME280;23096;50.892;16.746;2023-05-12T02:14:50;99440.45;;;10.28;53.66
37200;BME280;23096;50.892;16.746;2023-05-12T02:17:16;99438.30;;;10.25;53.74
37200;BME280;23096;50.892;16.746;2023-05-12T02:19:42;99438.40;;;10.22;53.85
37200;BME280;23096;50.892;16.746;2023-05-12T02:22:08;99438.46;;;10.19;53.82
37200;BME280;23096;50.892;16.746;2023-05-12T02:24:35;99442.25;;;10.12;53.95
37200;BME280;23096;50.892;16.746;2023-05-12T02:27:00;99441.92;;;10.05;54.02
37200;BME280;23096;50.892;16.746;2023-05-12T02:29:26;99443.45;;;9.99;54.13
37200;BME280;23096;50.892;16.746;2023-05-12T02:31:52;99446.04;;;9.92;54.18
37200;BME280;23096;50.892;16.746;2023-05-12T02:34:18;99446.34;;;9.87;54.26
37200;BME280;23096;50.892;16.746;2023-05-12T02:36:44;99446.95;;;9.83;54.33
37200;BME280;23096;50.892;16.746;2023-05-12T02:39:10;99451.52;;;9.79;54.50
37200;BME280;23096;50.892;16.746;2023-05-12T02:41:36;99450.27;;;9.74;54.55
37200;BME280;23096;50.892;16.746;2023-05-12T02:44:01;99449.33;;;9.71;54.62
37200;BME280;23096;50.892;16.746;2023-05-12T02:46:27;99450.40;;;9.69;54.80
37200;BME280;23096;50.892;16.746;2023-05-12T02:48:52;99456.27;;;9.68;54.84
37200;BME280;23096;50.892;16.746;2023-05-12T02:51:18;99457.90;;;9.64;54.84
37200;BME280;23096;50.892;16.746;2023-05-12T02:53:44;99460.24;;;9.60;54.97
37200;BME280;23096;50.892;16.746;2023-05-12T02:56:09;99456.48;;;9.59;55.14
37200;BME280;23096;50.892;16.746;2023-05-12T02:58:35;99455.12;;;9.59;55.12
37200;BME280;23096;50.892;16.746;2023-05-12T03:01:00;99455.20;;;9.55;55.26
37200;BME280;23096;50.892;16.746;2023-05-12T03:03:26;99453.23;;;9.52;55.29
37200;BME280;23096;50.892;16.746;2023-05-12T03:05:52;99454.64;;;9.50;55.52
37200;BME280;23096;50.892;16.746;2023-05-12T03:08:18;99460.23;;;9.46;55.46
37200;BME280;23096;50.892;16.746;2023-05-12T03:10:43;99459.27;;;9.42;55.59
37200;BME280;23096;50.892;16.746;2023-05-12T03:13:09;99455.02;;;9.40;55.62
37200;BME280;23096;50.892;16.746;2023-05-12T03:15:35;99457.28;;;9.39;55.73
37200;BME280;23096;50.892;16.746;2023-05-12T03:18:03;99455.93;;;9.38;55.78
37200;BME280;23096;50.892;16.746;2023-05-12T03:20:29;99457.38;;;9.35;55.92
37200;BME280;23096;50.892;16.746;2023-05-12T03:22:55;99458.23;;;9.35;55.95
37200;BME280;23096;50.892;16.746;2023-05-12T03:25:20;99459.77;;;9.36;56.00
37200;BME280;23096;50.892;16.746;2023-05-12T03:27:46;99463.56;;;9.35;56.11
37200;BME280;23096;50.892;16.746;2023-05-12T03:30:12;99463.27;;;9.33;56.10
37200;BME280;23096;50.892;16.746;2023-05-12T03:32:38;99466.85;;;9.33;56.23
37200;BME280;23096;50.892;16.746;2023-05-12T03:35:04;99467.51;;;9.34;56.35
37200;BME280;23096;50.892;16.746;2023-05-12T03:37:31;99470.73;;;9.36;56.38
37200;BME280;23096;50.892;16.746;2023-05-12T03:39:56;99471.02;;;9.38;56.55
37200;BME280;23096;50.892;16.746;2023-05-12T03:42:23;99468.60;;;9.39;56.55
37200;BME280;23096;50.892;16.746;2023-05-12T03:44:52;99468.41;;;9.40;56.58
37200;BME280;23096;50.892;16.746;2023-05-12T03:47:17;99473.54;;;9.41;56.64
37200;BME280;23096;50.892;16.746;2023-05-12T03:49:44;99473.20;;;9.41;56.65
37200;BME280;23096;50.892;16.746;2023-05-12T03:52:09;99472.80;;;9.43;56.75
37200;BME280;23096;50.892;16.746;2023-05-12T03:54:35;99471.92;;;9.44;56.78
37200;BME280;23096;50.892;16.746;2023-05-12T03:57:00;99476.00;;;9.46;56.88
37200;BME280;23096;50.892;16.746;2023-05-12T03:59:29;99477.27;;;9.50;56.93
37200;BME280;23096;50.892;16.746;2023-05-12T04:01:55;99475.83;;;9.53;56.95
37200;BME280;23096;50.892;16.746;2023-05-12T04:04:21;99476.77;;;9.56;56.94
37200;BME280;23096;50.892;16.746;2023-05-12T04:06:47;99480.12;;;9.60;57.03
37200;BME280;23096;50.892;16.746;2023-05-12T04:09:12;99479.17;;;9.64;57.05
37200;BME280;23096;50.892;16.746;2023-05-12T04:11:38;99474.33;;;9.65;57.12
37200;BME280;23096;50.892;16.746;2023-05-12T04:14:03;99478.15;;;9.71;57.11
37200;BME280;23096;50.892;16.746;2023-05-12T04:16:29;99482.15;;;9.75;57.24
37200;BME280;23096;50.892;16.746;2023-05-12T04:18:57;99484.45;;;9.79;57.33
37200;BME280;23096;50.892;16.746;2023-05-12T04:21:22;99482.99;;;9.84;57.30
37200;BME280;23096;50.892;16.746;2023-05-12T04:23:51;99488.88;;;9.88;57.36
37200;BME280;23096;50.892;16.746;2023-05-12T04:26:17;99487.92;;;9.92;57.35
37200;BME280;23096;50.892;16.746;2023-05-12T04:28:43;99485.38;;;9.97;57.34
37200;BME280;23096;50.892;16.746;2023-05-12T04:31:08;99486.84;;;10.00;57.38
37200;BME280;23096;50.892;16.746;2023-05-12T04:33:37;99490.40;;;10.03;57.40
37200;BME280;23096;50.892;16.746;2023-05-12T04:36:04;99491.02;;;10.05;57.40
37200;BME280;23096;50.892;16.746;2023-05-12T04:38:30;99487.70;;;10.07;57.44
37200;BME280;23096;50.892;16.746;2023-05-12T04:40:59;99489.19;;;10.09;57.54
37200;BME280;23096;50.892;16.746;2023-05-12T04:43:25;99494.45;;;10.11;57.52
37200;BME280;23096;50.892;16.746;2023-05-12T04:45:51;99496.56;;;10.16;57.61
37200;BME280;23096;50.892;16.746;2023-05-12T04:48:19;99494.02;;;10.21;57.65
37200;BME280;23096;50.892;16.746;2023-05-12T04:50:46;99494.57;;;10.27;57.62
37200;BME280;23096;50.892;16.746;2023-05-12T04:53:11;99491.54;;;10.32;57.65
37200;BME280;23096;50.892;16.746;2023-05-12T04:55:37;99496.73;;;10.37;57.70
37200;BME280;23096;50.892;16.746;2023-05-12T04:58:03;99494.48;;;10.44;57.77
37200;BME280;23096;50.892;16.746;2023-05-12T05:00:29;99495.00;;;10.50;57.67
37200;BME280;23096;50.892;16.746;2023-05-12T05:02:54;99497.77;;;10.55;57.65
37200;BME280;23096;50.892;16.746;2023-05-12T05:05:21;99498.56;;;10.58;57.65
37200;BME280;23096;50.892;16.746;2023-05-12T05:07:46;99499.99;;;10.62;57.68
37200;BME280;23096;50.892;16.746;2023-05-12T05:10:12;99500.96;;;10.64;57.62
37200;BME280;23096;50.892;16.746;2023-05-12T05:12:40;99501.59;;;10.67;57.61
37200;BME280;23096;50.892;16.746;2023-05-12T05:15:06;99504.07;;;10.70;57.56
37200;BME280;23096;50.892;16.746;2023-05-12T05:17:34;99503.60;;;10.74;57.61
37200;BME280;23096;50.892;16.746;2023-05-12T05:20:00;99503.72;;;10.76;57.58
37200;BME280;23096;50.892;16.746;2023-05-12T05:22:28;99506.05;;;10.79;57.58
37200;BME280;23096;50.892;16.746;2023-05-12T05:24:54;99506.20;;;10.86;57.67
37200;BME280;23096;50.892;16.746;2023-05-12T05:27:20;99508.10;;;10.91;57.63
37200;BME280;23096;50.892;16.746;2023-05-12T05:29:46;99506.36;;;10.98;57.68
37200;BME280;23096;50.892;16.746;2023-05-12T05:32:11;99507.20;;;11.04;57.69
37200;BME280;23096;50.892;16.746;2023-05-12T05:34:37;99500.39;;;11.08;57.64
37200;BME280;23096;50.892;16.746;2023-05-12T05:37:04;99497.51;;;11.12;57.67
37200;BME280;23096;50.892;16.746;2023-05-12T05:39:30;99499.75;;;11.18;57.68
37200;BME280;23096;50.892;16.746;2023-05-12T05:41:56;99504.05;;;11.24;57.68
37200;BME280;23096;50.892;16.746;2023-05-12T05:44:23;99502.30;;;11.30;57.74
37200;BME280;23096;50.892;16.746;2023-05-12T05:46:50;99504.99;;;11.38;57.71
37200;BME280;23096;50.892;16.746;2023-05-12T05:49:16;99506.17;;;11.44;57.77
37200;BME280;23096;50.892;16.746;2023-05-12T05:51:41;99502.92;;;11.49;57.63
37200;BME280;23096;50.892;16.746;2023-05-12T05:54:07;99506.19;;;11.54;57.72
37200;BME280;23096;50.892;16.746;2023-05-12T05:56:33;99510.17;;;11.60;57.65
37200;BME280;23096;50.892;16.746;2023-05-12T05:59:03;99512.76;;;11.65;57.65
37200;BME280;23096;50.892;16.746;2023-05-12T06:01:30;99510.59;;;11.68;57.61
37200;BME280;23096;50.892;16.746;2023-05-12T06:03:55;99514.45;;;11.71;57.59
37200;BME280;23096;50.892;16.746;2023-05-12T06:06:21;99512.11;;;11.74;57.69
37200;BME280;23096;50.892;16.746;2023-05-12T06:08:47;99516.34;;;11.81;57.67
37200;BME280;23096;50.892;16.746;2023-05-12T06:11:12;99516.52;;;11.86;57.67
37200;BME280;23096;50.892;16.746;2023-05-12T06:13:38;99521.06;;;11.91;57.68
37200;BME280;23096;50.892;16.746;2023-05-12T06:16:03;99521.82;;;11.94;57.64
37200;BME280;23096;50.892;16.746;2023-05-12T06:18:30;99524.77;;;11.99;57.67
37200;BME280;23096;50.892;16.746;2023-05-12T06:20:58;99525.69;;;12.02;57.68
37200;BME280;23096;50.892;16.746;2023-05-12T06:23:24;99531.33;;;12.08;57.73
37200;BME280;23096;50.892;16.746;2023-05-12T06:25:49;99531.77;;;12.15;57.72
37200;BME280;23096;50.892;16.746;2023-05-12T06:28:18;99536.56;;;12.22;57.76
37200;BME280;23096;50.892;16.746;2023-05-12T06:30:44;99534.77;;;12.24;57.81
37200;BME280;23096;50.892;16.746;2023-05-12T06:33:10;99533.73;;;12.29;57.77
37200;BME280;23096;50.892;16.746;2023-05-12T06:35:36;99535.44;;;12.34;57.84
37200;BME280;23096;50.892;16.746;2023-05-12T06:38:04;99533.72;;;12.39;57.80
37200;BME280;23096;50.892;16.746;2023-05-12T06:40:29;99532.27;;;12.46;57.79
37200;BME280;23096;50.892;16.746;2023-05-12T06:42:55;99530.95;;;12.55;57.85
37200;BME280;23096;50.892;16.746;2023-05-12T06:45:24;99533.21;;;12.59;57.83
37200;BME280;23096;50.892;16.746;2023-05-12T06:47:50;99528.77;;;12.62;57.87
37200;BME280;23096;50.892;16.746;2023-05-12T06:50:17;99527.14;;;12.69;57.88
37200;BME280;23096;50.892;16.746;2023-05-12T06:52:43;99527.70;;;12.77;57.94
37200;BME280;23096;50.892;16.746;2023-05-12T06:55:09;99530.41;;;12.89;58.09
37200;BME280;23096;50.892;16.746;2023-05-12T06:57:34;99527.13;;;12.98;57.95
37200;BME280;23096;50.892;16.746;2023-05-12T07:00:01;99525.76;;;13.03;57.88
37200;BME280;23096;50.892;16.746;2023-05-12T07:02:28;99526.29;;;13.07;57.89
37200;BME280;23096;50.892;16.746;2023-05-12T07:04:54;99533.66;;;13.16;57.90
37200;BME280;23096;50.892;16.746;2023-05-12T07:07:20;99533.36;;;13.25;57.79
37200;BME280;23096;50.892;16.746;2023-05-12T07:09:45;99533.64;;;13.32;57.79
37200;BME280;23096;50.892;16.746;2023-05-12T07:12:11;99536.36;;;13.37;57.63
37200;BME280;23096;50.892;16.746;2023-05-12T07:14:37;99537.44;;;13.46;57.73
37200;BME280;23096;50.892;16.746;2023-05-12T07:17:02;99537.48;;;13.58;57.70
37200;BME280;23096;50.892;16.746;2023-05-12T07:19:28;99537.59;;;13.68;57.67
37200;BME280;23096;50.892;16.746;2023-05-12T07:21:54;99539.09;;;13.78;57.65
37200;BME280;23096;50.892;16.746;2023-05-12T07:24:19;99538.20;;;13.87;57.49
37200;BME280;23096;50.892;16.746;2023-05-12T07:26:45;99540.10;;;13.96;57.42
37200;BME280;23096;50.892;16.746;2023-05-12T07:29:10;99532.23;;;14.02;57.22
37200;BME280;23096;50.892;16.746;2023-05-12T07:31:36;99532.03;;;14.07;57.11
37200;BME280;23096;50.892;16.746;2023-05-12T07:34:01;99534.05;;;14.16;57.14
37200;BME280;23096;50.892;16.746;2023-05-12T07:36:27;99532.48;;;14.25;57.11
37200;BME280;23096;50.892;16.746;2023-05-12T07:38:52;99531.15;;;14.32;57.10
37200;BME280;23096;50.892;16.746;2023-05-12T07:41:18;99531.44;;;14.37;56.99
37200;BME280;23096;50.892;16.746;2023-05-12T07:43:44;99533.54;;;14.49;57.06
37200;BME280;23096;50.892;16.746;2023-05-12T07:46:10;99536.66;;;14.61;56.92
37200;BME280;23096;50.892;16.746;2023-05-12T07:48:36;99538.63;;;14.72;56.94
37200;BME280;23096;50.892;16.746;2023-05-12T07:51:05;99540.84;;;14.80;56.72
37200;BME280;23096;50.892;16.746;2023-05-12T07:53:31;99541.50;;;14.89;56.71
37200;BME280;23096;50.892;16.746;2023-05-12T07:55:56;99542.16;;;15.01;56.74
37200;BME280;23096;50.892;16.746;2023-05-12T07:58:22;99538.58;;;15.11;56.62
37200;BME280;23096;50.892;16.746;2023-05-12T08:00:47;99537.91;;;15.15;56.69
37200;BME280;23096;50.892;16.746;2023-05-12T08:03:13;99539.95;;;15.19;56.41
37200;BME280;23096;50.892;16.746;2023-05-12T08:05:40;99535.69;;;15.22;56.36
37200;BME280;23096;50.892;16.746;2023-05-12T08:08:06;99537.52;;;15.27;56.18
37200;BME280;23096;50.892;16.746;2023-05-12T08:10:33;99542.88;;;15.35;56.30
37200;BME280;23096;50.892;16.746;2023-05-12T08:12:59;99546.77;;;15.40;56.06
37200;BME280;23096;50.892;16.746;2023-05-12T08:15:24;99548.06;;;15.46;56.02
37200;BME280;23096;50.892;16.746;2023-05-12T08:17:50;99545.84;;;15.53;55.93
37200;BME280;23096;50.892;16.746;2023-05-12T08:20:16;99549.08;;;15.64;55.99
37200;BME280;23096;50.892;16.746;2023-05-12T08:22:42;99550.65;;;15.79;55.92
37200;BME280;23096;50.892;16.746;2023-05-12T08:25:08;99545.09;;;15.90;55.85
37200;BME280;23096;50.892;16.746;2023-05-12T08:27:34;99542.80;;;16.01;55.88
37200;BME280;23096;50.892;16.746;2023-05-12T08:30:00;99542.35;;;16.14;55.89
37200;BME280;23096;50.892;16.746;2023-05-12T08:32:26;99541.17;;;16.24;55.65
37200;BME280;23096;50.892;16.746;2023-05-12T08:34:51;99538.95;;;16.31;55.45
37200;BME280;23096;50.892;16.746;2023-05-12T08:37:17;99542.08;;;16.37;55.43
37200;BME280;23096;50.892;16.746;2023-05-12T08:39:42;99541.38;;;16.44;55.31
37200;BME280;23096;50.892;16.746;2023-05-12T08:44:42;99540.15;;;16.54;55.02
37200;BME280;23096;50.892;16.746;2023-05-12T08:47:09;99537.77;;;16.60;55.04
37200;BME280;23096;50.892;16.746;2023-05-12T08:49:38;99536.48;;;16.68;54.93
37200;BME280;23096;50.892;16.746;2023-05-12T08:52:05;99539.13;;;16.77;54.63
37200;BME280;23096;50.892;16.746;2023-05-12T08:54:32;99540.20;;;16.84;54.71
37200;BME280;23096;50.892;16.746;2023-05-12T08:56:58;99539.64;;;16.84;54.42
37200;BME280;23096;50.892;16.746;2023-05-12T08:59:23;99538.48;;;16.90;54.41
37200;BME280;23096;50.892;16.746;2023-05-12T09:01:49;99541.83;;;16.99;54.35
37200;BME280;23096;50.892;16.746;2023-05-12T09:04:16;99542.39;;;17.08;54.24
37200;BME280;23096;50.892;16.746;2023-05-12T09:06:45;99542.13;;;17.19;54.25
37200;BME280;23096;50.892;16.746;2023-05-12T09:09:19;99544.70;;;17.32;54.18
37200;BME280;23096;50.892;16.746;2023-05-12T09:11:49;99546.58;;;17.33;53.70
37200;BME280;23096;50.892;16.746;2023-05-12T09:14:22;99543.90;;;17.34;53.55
37200;BME280;23096;50.892;16.746;2023-05-12T09:16:52;99542.41;;;17.42;53.44
37200;BME280;23096;50.892;16.746;2023-05-12T09:19:20;99539.13;;;17.51;53.48
37200;BME280;23096;50.892;16.746;2023-05-12T09:21:46;99538.74;;;17.65;53.35
37200;BME280;23096;50.892;16.746;2023-05-12T09:24:12;99541.35;;;17.77;53.25
37200;BME280;23096;50.892;16.746;2023-05-12T09:29:09;99539.91;;;17.97;52.83
37200;BME280;23096;50.892;16.746;2023-05-12T09:31:35;99540.69;;;18.04;52.42
37200;BME280;23096;50.892;16.746;2023-05-12T09:34:06;99542.83;;;18.09;52.26
37200;BME280;23096;50.892;16.746;2023-05-12T09:36:33;99536.85;;;18.13;52.17
37200;BME280;23096;50.892;16.746;2023-05-12T09:39:00;99535.75;;;18.23;52.16
37200;BME280;23096;50.892;16.746;2023-05-12T09:41:38;99532.61;;;18.35;52.04
37200;BME280;23096;50.892;16.746;2023-05-12T09:44:06;99524.17;;;18.46;51.65
37200;BME280;23096;50.892;16.746;2023-05-12T09:46:33;99525.00;;;18.52;51.47
37200;BME280;23096;50.892;16.746;2023-05-12T09:48:59;99522.34;;;18.58;51.60
37200;BME280;23096;50.892;16.746;2023-05-12T09:51:26;99516.20;;;18.65;51.40
37200;BME280;23096;50.892;16.746;2023-05-12T09:53:51;99515.64;;;18.72;51.15
37200;BME280;23096;50.892;16.746;2023-05-12T09:56:17;99515.45;;;18.78;51.06
37200;BME280;23096;50.892;16.746;2023-05-12T09:58:45;99518.80;;;18.80;50.75
37200;BME280;23096;50.892;16.746;2023-05-12T10:01:14;99515.46;;;18.81;50.50
37200;BME280;23096;50.892;16.746;2023-05-12T10:03:41;99518.34;;;18.85;50.25
37200;BME280;23096;50.892;16.746;2023-05-12T10:06:11;99517.59;;;18.94;50.07
37200;BME280;23096;50.892;16.746;2023-05-12T10:11:23;99512.15;;;19.28;49.90
37200;BME280;23096;50.892;16.746;2023-05-12T10:13:49;99511.69;;;19.39;49.55
37200;BME280;23096;50.892;16.746;2023-05-12T10:16:15;99516.55;;;19.50;49.38
37200;BME280;23096;50.892;16.746;2023-05-12T10:18:42;99518.88;;;19.59;49.04
37200;BME280;23096;50.892;16.746;2023-05-12T10:21:08;99516.08;;;19.65;48.87
37200;BME280;23096;50.892;16.746;2023-05-12T10:23:38;99515.85;;;19.77;48.84
37200;BME280;23096;50.892;16.746;2023-05-12T10:26:05;99512.73;;;19.93;48.64
37200;BME280;23096;50.892;16.746;2023-05-12T10:28:30;99507.08;;;20.04;48.30
37200;BME280;23096;50.892;16.746;2023-05-12T10:30:57;99504.76;;;20.10;48.02
37200;BME280;23096;50.892;16.746;2023-05-12T10:33:23;99505.54;;;20.17;48.03
37200;BME280;23096;50.892;16.746;2023-05-12T10:35:50;99506.47;;;20.26;47.73
37200;BME280;23096;50.892;16.746;2023-05-12T10:38:16;99507.40;;;20.33;47.54
37200;BME280;23096;50.892;16.746;2023-05-12T10:41:00;99513.13;;;20.36;47.39
37200;BME280;23096;50.892;16.746;2023-05-12T10:43:29;99509.04;;;20.40;46.99
37200;BME280;23096;50.892;16.746;2023-05-12T10:46:20;99505.48;;;20.38;46.78
37200;BME280;23096;50.892;16.746;2023-05-12T10:49:06;99503.81;;;20.37;46.79
37200;BME280;23096;50.892;16.746;2023-05-12T10:51:34;99504.96;;;20.41;46.51
37200;BME280;23096;50.892;16.746;2023-05-12T10:54:17;99497.25;;;20.49;46.49
37200;BME280;23096;50.892;16.746;2023-05-12T10:56:51;99498.80;;;20.59;46.17
37200;BME280;23096;50.892;16.746;2023-05-12T10:59:21;99497.62;;;20.64;46.13
37200;BME280;23096;50.892;16.746;2023-05-12T11:07:12;99492.72;;;20.79;45.76
37200;BME280;23096;50.892;16.746;2023-05-12T11:09:43;99494.67;;;20.91;45.63
37200;BME280;23096;50.892;16.746;2023-05-12T11:12:10;99492.98;;;21.03;45.47
37200;BME280;23096;50.892;16.746;2023-05-12T11:14:37;99496.40;;;21.09;45.36
37200;BME280;23096;50.892;16.746;2023-05-12T11:17:03;99489.67;;;21.13;45.17
37200;BME280;23096;50.892;16.746;2023-05-12T11:19:30;99488.46;;;21.15;44.96
37200;BME280;23096;50.892;16.746;2023-05-12T11:21:56;99489.46;;;21.16;44.82
37200;BME280;23096;50.892;16.746;2023-05-12T11:24:22;99491.63;;;21.19;44.57
37200;BME280;23096;50.892;16.746;2023-05-12T11:26:48;99490.71;;;21.30;44.48
37200;BME280;23096;50.892;16.746;2023-05-12T11:29:18;99488.86;;;21.44;44.22
37200;BME280;23096;50.892;16.746;2023-05-12T11:31:48;99489.30;;;21.52;43.83
37200;BME280;23096;50.892;16.746;2023-05-12T11:34:14;99490.27;;;21.58;43.86
37200;BME280;23096;50.892;16.746;2023-05-12T11:36:42;99491.52;;;21.59;43.37
37200;BME280;23096;50.892;16.746;2023-05-12T11:39:37;99490.52;;;21.59;43.07
37200;BME280;23096;50.892;16.746;2023-05-12T11:42:04;99495.04;;;21.69;42.96
37200;BME280;23096;50.892;16.746;2023-05-12T11:44:30;99498.22;;;21.73;42.65
37200;BME280;23096;50.892;16.746;2023-05-12T11:46:58;99494.86;;;21.76;42.15
37200;BME280;23096;50.892;16.746;2023-05-12T11:49:25;99494.73;;;21.78;41.80
37200;BME280;23096;50.892;16.746;2023-05-12T11:51:56;99495.79;;;21.85;41.54
37200;BME280;23096;50.892;16.746;2023-05-12T11:54:22;99496.23;;;21.93;41.22
37200;BME280;23096;50.892;16.746;2023-05-12T11:56:49;99495.16;;;21.95;40.90
37200;BME280;23096;50.892;16.746;2023-05-12T11:59:28;99501.48;;;21.90;40.52
37200;BME280;23096;50.892;16.746;2023-05-12T12:01:54;99501.66;;;21.74;40.07
37200;BME280;23096;50.892;16.746;2023-05-12T12:04:36;99500.70;;;21.54;39.72
37200;BME280;23096;50.892;16.746;2023-05-12T12:07:03;99500.34;;;21.39;39.59
37200;BME280;23096;50.892;16.746;2023-05-12T12:09:34;99496.89;;;21.24;39.50
37200;BME280;23096;50.892;16.746;2023-05-12T12:12:02;99496.38;;;21.12;39.44
37200;BME280;23096;50.892;16.746;2023-05-12T12:14:31;99499.20;;;21.09;39.46
37200;BME280;23096;50.892;16.746;2023-05-12T12:16:58;99502.42;;;21.15;39.43
37200;BME280;23096;50.892;16.746;2023-05-12T12:19:24;99504.91;;;21.17;39.49
37200;BME280;23096;50.892;16.746;2023-05-12T12:21:55;99504.41;;;21.09;39.32
37200;BME280;23096;50.892;16.746;2023-05-12T12:24:21;99501.34;;;21.01;39.27
37200;BME280;23096;50.892;16.746;2023-05-12T12:26:46;99496.54;;;20.92;39.15
37200;BME280;23096;50.892;16.746;2023-05-12T12:29:12;99495.91;;;20.86;39.17
37200;BME280;23096;50.892;16.746;2023-05-12T12:31:37;99493.89;;;20.80;39.20
37200;BME280;23096;50.892;16.746;2023-05-12T12:34:03;99493.42;;;20.72;39.14
37200;BME280;23096;50.892;16.746;2023-05-12T12:36:30;99491.77;;;20.68;39.23
37200;BME280;23096;50.892;16.746;2023-05-12T12:38:55;99491.89;;;20.71;39.33
37200;BME280;23096;50.892;16.746;2023-05-12T12:41:21;99490.91;;;20.88;39.54
37200;BME280;23096;50.892;16.746;2023-05-12T12:43:46;99490.17;;;21.13;39.63
37200;BME280;23096;50.892;16.746;2023-05-12T12:46:12;99494.77;;;21.32;39.57
37200;BME280;23096;50.892;16.746;2023-05-12T12:48:37;99490.59;;;21.36;39.55
37200;BME280;23096;50.892;16.746;2023-05-12T12:51:03;99488.75;;;21.42;39.43
37200;BME280;23096;50.892;16.746;2023-05-12T12:53:30;99490.34;;;21.47;39.36
37200;BME280;23096;50.892;16.746;2023-05-12T12:55:55;99495.47;;;21.44;39.12
37200;BME280;23096;50.892;16.746;2023-05-12T12:58:21;99496.13;;;21.35;39.06
37200;BME280;23096;50.892;16.746;2023-05-12T13:00:47;99493.39;;;21.21;38.89
37200;BME280;23096;50.892;16.746;2023-05-12T13:03:13;99490.30;;;21.06;38.77
37200;BME280;23096;50.892;16.746;2023-05-12T13:05:39;99489.67;;;20.91;38.58